Time;durP1;ratioP1;P1;durP2;ratioP2;P2;SDS_P1;SDS_P2;PMS_P1;PMS_P2;Temp;Humidity;BMP_temperature;BMP_pressure;BME280_temperature;BME280_humidity;BME280_pressure;Samples;Min_cycle;Max_cycle;Signal;HPM_P1;HPM_P2
2022/03/05 00:00:52;;;;;;;9.15;5.07;;;10.80;65.30;;;;;;5047579;28;20029;-72
2022/03/05 00:03:18;;;;;;;10.55;5.53;;;10.80;65.40;;;;;;5045962;28;20439;-74
2022/03/05 00:05:44;;;;;;;8.95;5.07;;;10.80;65.40;;;;;;5046231;28;20120;-72
2022/03/05 00:08:10;;;;;;;8.85;5.72;;;10.70;65.30;;;;;;5042680;28;20571;-74
2022/03/05 00:10:37;;;;;;;22.70;6.07;;;10.80;65.30;;;;;;5027178;28;20033;-72
2022/03/05 00:13:04;;;;;;;11.25;5.50;;;10.70;65.40;;;;;;5027835;28;20160;-73
2022/03/05 00:15:29;;;;;;;9.88;5.65;;;10.70;65.30;;;;;;5027706;28;20033;-74
2022/03/05 00:17:56;;;;;;;11.65;5.43;;;10.70;65.30;;;;;;5027618;28;20029;-74
2022/03/05 00:20:25;;;;;;;9.63;5.30;;;10.70;65.30;;;;;;5013120;28;20032;-74
2022/03/05 00:22:52;;;;;;;12.63;6.63;;;10.70;65.30;;;;;;5008485;28;20084;-73
2022/03/05 00:25:27;;;;;;;9.23;5.10;;;10.80;65.20;;;;;;5043944;28;20033;-73
2022/03/05 00:27:53;;;;;;;10.27;5.38;;;10.70;65.20;;;;;;5044470;28;20132;-75
2022/03/05 00:30:19;;;;;;;9.93;5.45;;;10.70;65.20;;;;;;5041865;28;20382;-73
2022/03/05 00:32:46;;;;;;;11.30;5.80;;;10.70;65.10;;;;;;5046077;28;20035;-75
2022/03/05 00:35:11;;;;;;;13.25;5.38;;;10.70;65.20;;;;;;5047096;28;20082;-73
2022/03/05 00:37:37;;;;;;;10.40;5.53;;;10.70;65.10;;;;;;5032780;28;20428;-74
2022/03/05 00:40:04;;;;;;;10.63;5.63;;;10.70;65.10;;;;;;5015635;28;20025;-73
2022/03/05 00:42:30;;;;;;;12.38;6.05;;;10.70;65.10;;;;;;5030072;28;20021;-74
2022/03/05 00:44:55;;;;;;;8.70;5.43;;;10.70;65.10;;;;;;5028152;28;20032;-74
2022/03/05 00:47:21;;;;;;;10.45;5.75;;;10.70;65.00;;;;;;5026088;28;20029;-74
2022/03/05 00:49:46;;;;;;;11.27;5.88;;;10.70;65.00;;;;;;5025368;28;20065;-73
2022/03/05 00:52:12;;;;;;;12.45;6.20;;;10.70;65.00;;;;;;5025914;28;20048;-73
2022/03/05 00:54:37;;;;;;;10.70;5.60;;;10.70;65.00;;;;;;5026440;28;20722;-74
2022/03/05 00:57:03;;;;;;;9.52;5.15;;;10.70;65.00;;;;;;5027706;28;20030;-74
2022/03/05 00:59:29;;;;;;;10.27;5.85;;;10.70;65.00;;;;;;5026619;28;20105;-73
2022/03/05 01:01:55;;;;;;;10.20;5.72;;;10.70;65.00;;;;;;5026790;28;20041;-74
2022/03/05 01:04:20;;;;;;;10.55;5.93;;;10.70;65.00;;;;;;5027408;28;20025;-75
2022/03/05 01:06:46;;;;;;;10.48;5.97;;;10.70;65.00;;;;;;5024106;28;20033;-74
2022/03/05 01:09:11;;;;;;;10.77;5.82;;;10.70;65.00;;;;;;5023619;28;20878;-73
2022/03/05 01:11:37;;;;;;;10.40;6.05;;;10.70;65.00;;;;;;5023990;28;20124;-74
2022/03/05 01:14:03;;;;;;;11.32;5.30;;;10.70;65.00;;;;;;5039667;28;20031;-74
2022/03/05 01:16:28;;;;;;;12.07;6.10;;;10.70;65.00;;;;;;5046377;28;20072;-76
2022/03/05 01:18:54;;;;;;;11.10;6.32;;;10.70;65.00;;;;;;5038231;28;20028;-74
2022/03/05 01:21:19;;;;;;;12.20;6.30;;;10.70;65.00;;;;;;5039740;28;20037;-74
2022/03/05 01:23:45;;;;;;;12.77;6.45;;;10.70;65.10;;;;;;5046191;28;20025;-73
2022/03/05 01:26:10;;;;;;;13.38;6.22;;;10.70;65.00;;;;;;5045313;28;20024;-74
2022/03/05 01:28:36;;;;;;;13.00;6.43;;;10.70;64.90;;;;;;5046012;28;20375;-74
2022/03/05 01:31:02;;;;;;;12.73;6.18;;;10.70;64.90;;;;;;5034164;28;20069;-74
2022/03/05 01:33:28;;;;;;;11.73;6.15;;;10.70;64.90;;;;;;5026222;28;20029;-73
2022/03/05 01:35:53;;;;;;;10.60;6.55;;;10.70;65.30;;;;;;5024937;28;20064;-74
2022/03/05 01:38:19;;;;;;;11.25;6.25;;;10.70;64.70;;;;;;5024726;28;20083;-73
2022/03/05 01:40:45;;;;;;;10.63;6.47;;;10.70;64.70;;;;;;5026608;28;20614;-75
2022/03/05 01:43:11;;;;;;;11.75;6.68;;;10.70;64.70;;;;;;5026045;28;20029;-73
2022/03/05 01:45:38;;;;;;;10.50;6.35;;;10.70;64.60;;;;;;5026404;28;20033;-74
2022/03/05 01:48:04;;;;;;;11.88;6.82;;;10.70;64.70;;;;;;5026664;28;20028;-74
2022/03/05 01:50:30;;;;;;;11.15;6.80;;;10.70;64.60;;;;;;5026694;28;20029;-72
2022/03/05 01:52:56;;;;;;;11.77;7.00;;;10.70;64.60;;;;;;5026365;28;20155;-74
2022/03/05 01:55:23;;;;;;;12.05;6.93;;;10.70;64.50;;;;;;5028641;28;20390;-72
2022/03/05 01:57:48;;;;;;;16.05;7.38;;;10.60;64.50;;;;;;5031495;28;20033;-74
2022/03/05 02:00:15;;;;;;;12.10;6.90;;;10.70;64.50;;;;;;5023503;28;20082;-74
2022/03/05 02:02:42;;;;;;;11.45;6.95;;;10.70;64.50;;;;;;5030917;28;20103;-74
2022/03/05 02:05:09;;;;;;;12.30;7.65;;;10.70;64.50;;;;;;5026808;28;20029;-74
2022/03/05 02:07:36;;;;;;;11.77;7.28;;;10.60;64.40;;;;;;5026617;28;20033;-72
2022/03/05 02:10:02;;;;;;;12.02;7.20;;;10.70;64.40;;;;;;5025178;28;20030;-74
2022/03/05 02:12:33;;;;;;;11.95;7.35;;;10.70;64.30;;;;;;5025270;28;20033;-74
2022/03/05 02:14:59;;;;;;;11.43;7.22;;;10.70;64.30;;;;;;5038027;28;20094;-74
2022/03/05 02:17:27;;;;;;;12.23;7.25;;;10.60;64.30;;;;;;5045537;28;20029;-73
2022/03/05 02:19:53;;;;;;;14.70;7.80;;;10.70;64.30;;;;;;5023360;28;20052;-75
2022/03/05 02:22:19;;;;;;;13.20;7.32;;;10.70;64.30;;;;;;5025112;28;20487;-74
2022/03/05 02:24:45;;;;;;;13.30;7.97;;;10.60;64.20;;;;;;5025319;28;20040;-74
2022/03/05 02:27:10;;;;;;;13.07;7.40;;;10.70;64.20;;;;;;5025155;28;20022;-74
2022/03/05 02:29:37;;;;;;;14.45;8.07;;;10.70;64.30;;;;;;5023619;28;20057;-74
2022/03/05 02:32:04;;;;;;;14.82;8.07;;;10.70;64.20;;;;;;5023899;28;20053;-74
2022/03/05 02:34:30;;;;;;;15.45;8.93;;;10.70;64.20;;;;;;5033443;28;20501;-72
2022/03/05 02:36:55;;;;;;;21.77;9.32;;;10.50;64.10;;;;;;5028740;28;20044;-74
2022/03/05 02:39:25;;;;;;;19.35;8.60;;;10.60;64.10;;;;;;5025583;28;20491;-73
2022/03/05 02:41:55;;;;;;;25.42;8.45;;;10.60;64.20;;;;;;5026248;28;20041;-72
2022/03/05 02:44:21;;;;;;;17.13;8.75;;;10.60;64.10;;;;;;5025290;28;20397;-74
2022/03/05 02:46:49;;;;;;;22.05;8.82;;;10.60;64.00;;;;;;5025149;28;20203;-74
2022/03/05 02:49:15;;;;;;;25.55;8.93;;;10.60;64.00;;;;;;5023491;28;20473;-72
2022/03/05 02:51:41;;;;;;;22.13;9.00;;;10.70;64.10;;;;;;5023851;28;20060;-73
2022/03/05 02:54:07;;;;;;;28.13;9.75;;;10.60;64.00;;;;;;5027207;28;20029;-74
2022/03/05 02:56:32;;;;;;;18.55;8.80;;;10.60;64.00;;;;;;5027664;28;20099;-74
2022/03/05 02:58:58;;;;;;;18.17;9.38;;;10.60;64.00;;;;;;5026958;28;20021;-73
2022/03/05 03:01:24;;;;;;;20.08;9.32;;;10.60;64.00;;;;;;5027814;28;20037;-74
2022/03/05 03:03:50;;;;;;;20.77;9.90;;;10.60;64.00;;;;;;5028888;28;20028;-74
2022/03/05 03:06:16;;;;;;;19.67;9.55;;;10.60;64.00;;;;;;5028386;28;20055;-74
2022/03/05 03:08:42;;;;;;;16.17;8.57;;;10.60;63.80;;;;;;5027306;28;20037;-74
2022/03/05 03:11:07;;;;;;;15.15;8.98;;;10.60;63.90;;;;;;5027086;28;20532;-72
2022/03/05 03:13:33;;;;;;;14.90;8.93;;;10.60;63.90;;;;;;5027116;28;20040;-73
2022/03/05 03:15:58;;;;;;;18.38;9.27;;;10.60;63.90;;;;;;5027329;28;20045;-75
2022/03/05 03:18:24;;;;;;;16.33;8.82;;;10.60;63.80;;;;;;5026668;28;20030;-73
2022/03/05 03:20:49;;;;;;;15.82;9.13;;;10.60;63.80;;;;;;5034409;28;20021;-74
2022/03/05 03:23:15;;;;;;;17.52;10.02;;;10.60;63.80;;;;;;5047340;28;20036;-73
2022/03/05 03:25:40;;;;;;;21.75;9.63;;;10.60;63.80;;;;;;5033279;28;20025;-74
2022/03/05 03:28:09;;;;;;;63.40;12.13;;;10.60;63.80;;;;;;5027258;28;20551;-74
2022/03/05 03:30:35;;;;;;;24.92;9.30;;;10.60;63.90;;;;;;5028125;28;20029;-73
2022/03/05 03:33:01;;;;;;;22.58;9.70;;;10.60;63.80;;;;;;5027469;28;20025;-74
2022/03/05 03:35:27;;;;;;;20.63;9.88;;;10.60;63.70;;;;;;5021632;28;20402;-73
2022/03/05 03:37:53;;;;;;;18.35;9.80;;;10.60;63.70;;;;;;5024392;28;20037;-73
2022/03/05 03:40:20;;;;;;;18.13;10.45;;;10.60;63.70;;;;;;5027765;28;20025;-74
2022/03/05 03:42:49;;;;;;;16.55;8.98;;;10.60;63.70;;;;;;5028103;28;20399;-72
2022/03/05 03:45:15;;;;;;;16.60;9.43;;;10.60;63.70;;;;;;5027232;28;20028;-74
2022/03/05 03:47:43;;;;;;;15.35;9.27;;;10.60;63.80;;;;;;5027025;28;20042;-75
2022/03/05 03:50:10;;;;;;;150.73;16.88;;;10.60;63.80;;;;;;5027828;28;20714;-72
2022/03/05 03:52:36;;;;;;;20.77;9.82;;;10.60;63.90;;;;;;5028335;28;20026;-74
2022/03/05 03:55:03;;;;;;;19.75;9.93;;;10.60;63.80;;;;;;5027549;28;20048;-74
2022/03/05 03:57:29;;;;;;;18.10;10.00;;;10.60;63.70;;;;;;5026473;28;20087;-73
2022/03/05 03:59:54;;;;;;;16.00;9.90;;;10.60;63.80;;;;;;5027621;28;20859;-75
2022/03/05 04:02:21;;;;;;;16.48;9.77;;;10.60;63.70;;;;;;5026810;28;20025;-73
2022/03/05 04:04:48;;;;;;;14.90;9.30;;;10.60;63.70;;;;;;5026170;28;20087;-74
2022/03/05 04:09:58;;;;;;;25.23;10.32;;;10.60;63.70;;;;;;5038036;28;20067;-74
2022/03/05 04:12:24;;;;;;;19.02;9.73;;;10.60;63.80;;;;;;5046112;28;20025;-74
2022/03/05 04:14:49;;;;;;;19.58;9.80;;;10.60;63.80;;;;;;5029771;28;20033;-74
2022/03/05 04:17:15;;;;;;;23.17;9.98;;;10.60;63.80;;;;;;5030062;28;20506;-73
2022/03/05 04:19:41;;;;;;;15.40;8.90;;;10.60;63.80;;;;;;5028264;28;20021;-77
2022/03/05 04:22:08;;;;;;;17.85;9.23;;;10.60;63.80;;;;;;5028212;28;20061;-75
2022/03/05 04:24:34;;;;;;;18.48;10.52;;;10.60;63.80;;;;;;5029951;28;20502;-75
2022/03/05 04:26:59;;;;;;;13.95;9.18;;;10.60;63.80;;;;;;5032999;28;20044;-75
2022/03/05 04:29:26;;;;;;;17.90;9.73;;;10.60;63.80;;;;;;5027969;28;20040;-76
2022/03/05 04:31:51;;;;;;;17.70;9.55;;;10.60;63.80;;;;;;5028993;28;20033;-75
2022/03/05 04:34:18;;;;;;;17.58;9.45;;;10.60;63.80;;;;;;5028225;28;20104;-74
2022/03/05 04:36:43;;;;;;;19.05;9.70;;;10.60;63.80;;;;;;5029588;28;20120;-76
2022/03/05 04:39:09;;;;;;;22.48;9.68;;;10.60;63.80;;;;;;5048648;28;20111;-77
2022/03/05 04:41:34;;;;;;;23.25;10.02;;;10.60;63.80;;;;;;5047890;28;20033;-75
2022/03/05 04:44:00;;;;;;;19.50;9.68;;;10.50;63.80;;;;;;5048014;28;20516;-74
2022/03/05 04:46:25;;;;;;;16.67;9.93;;;10.50;63.80;;;;;;5047986;28;20020;-75
2022/03/05 04:48:51;;;;;;;19.30;10.65;;;10.60;63.80;;;;;;5042436;28;20025;-74
2022/03/05 04:51:16;;;;;;;19.67;9.93;;;10.50;63.80;;;;;;5028422;28;20033;-75
2022/03/05 04:53:42;;;;;;;16.25;9.98;;;10.60;63.80;;;;;;5024511;28;20475;-73
2022/03/05 04:56:07;;;;;;;18.00;9.75;;;10.60;63.80;;;;;;5036982;28;20032;-76
2022/03/05 04:58:33;;;;;;;16.73;9.95;;;10.60;63.90;;;;;;5028151;28;20429;-75
2022/03/05 05:00:58;;;;;;;17.83;10.07;;;10.60;63.90;;;;;;5028571;28;20550;-76
2022/03/05 05:03:24;;;;;;;19.27;10.00;;;10.50;63.80;;;;;;5046080;28;20025;-77
2022/03/05 05:05:49;;;;;;;15.38;9.48;;;10.50;63.80;;;;;;5042394;28;20494;-76
2022/03/05 05:08:16;;;;;;;17.63;9.93;;;10.50;63.90;;;;;;5028994;28;20029;-75
2022/03/05 05:10:41;;;;;;;16.90;9.48;;;10.50;63.90;;;;;;5026911;28;20091;-76
2022/03/05 05:13:07;;;;;;;14.57;9.68;;;10.50;63.90;;;;;;5027323;28;20247;-75
2022/03/05 05:15:32;;;;;;;17.40;10.18;;;10.50;63.90;;;;;;5026430;28;20582;-75
2022/03/05 05:18:00;;;;;;;14.75;9.20;;;10.50;63.90;;;;;;5027545;28;20033;-76
2022/03/05 05:20:25;;;;;;;16.77;9.40;;;10.50;63.90;;;;;;5036368;28;20386;-76
2022/03/05 05:22:51;;;;;;;16.88;9.85;;;10.50;63.90;;;;;;5048492;28;20028;-74
2022/03/05 05:25:17;;;;;;;15.88;9.63;;;10.50;63.90;;;;;;5029371;28;20446;-75
2022/03/05 05:27:43;;;;;;;14.50;9.30;;;10.50;63.80;;;;;;5027110;28;20159;-74
2022/03/05 05:30:09;;;;;;;16.83;9.20;;;10.50;63.80;;;;;;5027204;28;20120;-76
2022/03/05 05:32:35;;;;;;;17.33;9.85;;;10.50;63.80;;;;;;5029936;28;20033;-75
2022/03/05 05:35:01;;;;;;;17.58;9.85;;;10.50;63.90;;;;;;5038193;28;20505;-76
2022/03/05 05:37:26;;;;;;;17.15;9.98;;;10.50;63.80;;;;;;5027815;28;20025;-77
2022/03/05 05:39:52;;;;;;;17.10;9.20;;;10.50;63.80;;;;;;5022591;28;20039;-75
2022/03/05 05:42:17;;;;;;;14.93;9.55;;;10.50;63.80;;;;;;5027144;28;20410;-75
2022/03/05 05:44:43;;;;;;;16.08;10.00;;;10.50;63.80;;;;;;5026342;28;20595;-75
2022/03/05 05:47:09;;;;;;;14.68;9.40;;;10.50;63.80;;;;;;5027538;28;20478;-74
2022/03/05 05:49:35;;;;;;;15.75;9.70;;;10.50;63.80;;;;;;5026998;28;20025;-75
2022/03/05 05:52:01;;;;;;;21.55;10.63;;;10.50;63.80;;;;;;5026406;28;20032;-75
2022/03/05 05:54:27;;;;;;;19.35;9.73;;;10.50;64.10;;;;;;5019024;28;20439;-75
2022/03/05 05:56:52;;;;;;;19.58;9.00;;;10.50;64.40;;;;;;5027194;28;20025;-76
2022/03/05 05:59:18;;;;;;;20.90;10.02;;;10.50;63.90;;;;;;5027932;28;20375;-77
2022/03/05 06:01:44;;;;;;;19.58;10.23;;;10.50;63.90;;;;;;5043627;28;20028;-75
2022/03/05 06:04:09;;;;;;;15.93;9.70;;;10.50;63.90;;;;;;5028205;28;20029;-77
2022/03/05 06:06:35;;;;;;;16.67;10.32;;;10.50;63.90;;;;;;5026839;28;20120;-75
2022/03/05 06:09:00;;;;;;;18.38;10.00;;;10.50;63.90;;;;;;5026729;28;20108;-76
2022/03/05 06:11:26;;;;;;;16.13;9.38;;;10.50;63.90;;;;;;5043806;28;20060;-76
2022/03/05 06:13:52;;;;;;;16.65;9.30;;;10.50;63.90;;;;;;5026800;28;20037;-75
2022/03/05 06:16:17;;;;;;;17.95;9.77;;;10.50;63.90;;;;;;5027826;28;20112;-76
2022/03/05 06:18:43;;;;;;;17.73;9.90;;;10.50;64.00;;;;;;5038326;28;20060;-75
2022/03/05 06:21:09;;;;;;;17.63;9.75;;;10.50;63.90;;;;;;5032842;28;20030;-75
2022/03/05 06:23:36;;;;;;;17.17;9.52;;;10.50;64.00;;;;;;5027673;28;20125;-78
2022/03/05 06:26:02;;;;;;;14.38;8.88;;;10.50;63.90;;;;;;5026577;28;20033;-74
2022/03/05 06:28:28;;;;;;;16.30;9.48;;;10.50;63.90;;;;;;5044858;28;20033;-77
2022/03/05 06:30:54;;;;;;;16.45;10.52;;;10.50;63.80;;;;;;5034378;28;20017;-73
2022/03/05 06:33:20;;;;;;;15.73;9.52;;;10.50;63.90;;;;;;5031434;28;20025;-77
2022/03/05 06:35:45;;;;;;;14.00;9.32;;;10.50;63.80;;;;;;5031934;28;20391;-74
2022/03/05 06:38:11;;;;;;;14.75;9.48;;;10.50;63.70;;;;;;5030029;28;20033;-73
2022/03/05 06:40:37;;;;;;;16.25;9.82;;;10.50;63.80;;;;;;5031228;28;20026;-75
2022/03/05 06:43:02;;;;;;;16.83;10.05;;;10.50;63.70;;;;;;5029017;28;20024;-75
2022/03/05 06:45:28;;;;;;;17.38;10.13;;;10.50;63.70;;;;;;5031070;28;20025;-75
2022/03/05 06:47:54;;;;;;;14.93;9.63;;;10.50;63.60;;;;;;5030657;28;20029;-76
2022/03/05 06:50:19;;;;;;;17.55;9.80;;;10.60;63.60;;;;;;5031856;28;20056;-75
2022/03/05 06:52:45;;;;;;;15.63;9.55;;;10.60;63.60;;;;;;5027325;28;20037;-75
2022/03/05 06:55:15;;;;;;;14.45;9.23;;;10.60;63.60;;;;;;5040350;28;20033;-74
2022/03/05 06:57:41;;;;;;;15.32;10.23;;;10.50;63.50;;;;;;5030957;28;20029;-75
2022/03/05 07:00:08;;;;;;;17.67;10.82;;;10.60;63.50;;;;;;5031562;28;20025;-74
2022/03/05 07:02:34;;;;;;;15.70;9.82;;;10.60;63.60;;;;;;5030611;28;20104;-72
2022/03/05 07:05:00;;;;;;;14.45;9.50;;;10.60;63.50;;;;;;5046641;28;20107;-75
2022/03/05 07:07:26;;;;;;;15.70;10.32;;;10.60;63.40;;;;;;5050252;28;20778;-73
2022/03/05 07:09:51;;;;;;;15.25;9.73;;;10.70;63.40;;;;;;5031669;28;20115;-74
2022/03/05 07:12:17;;;;;;;15.30;9.75;;;10.60;63.20;;;;;;5031781;28;20156;-74
2022/03/05 07:14:48;;;;;;;16.17;10.48;;;10.70;63.40;;;;;;5042944;28;20064;-76
2022/03/05 07:17:17;;;;;;;15.10;10.07;;;10.70;63.40;;;;;;5037928;28;20058;-75
2022/03/05 07:19:43;;;;;;;15.60;10.18;;;10.70;63.40;;;;;;5013528;28;20143;-77
2022/03/05 07:22:09;;;;;;;14.60;9.57;;;10.70;63.40;;;;;;5025627;28;20057;-75
2022/03/05 07:24:34;;;;;;;15.77;10.15;;;10.70;63.20;;;;;;5033046;28;20101;-75
2022/03/05 07:27:00;;;;;;;14.73;9.77;;;10.70;63.10;;;;;;5026173;28;20533;-75
2022/03/05 07:29:26;;;;;;;15.27;9.93;;;10.80;63.00;;;;;;5030934;28;20032;-73
2022/03/05 07:31:51;;;;;;;15.55;9.95;;;10.80;62.90;;;;;;5032838;28;20030;-76
2022/03/05 07:34:17;;;;;;;14.80;9.90;;;10.80;62.90;;;;;;5023619;28;20030;-75
2022/03/05 07:36:43;;;;;;;14.77;9.82;;;10.80;62.80;;;;;;5031957;28;20036;-75
2022/03/05 07:39:08;;;;;;;15.23;9.93;;;10.80;62.70;;;;;;5028260;28;20037;-77
2022/03/05 07:41:36;;;;;;;14.80;10.25;;;10.90;62.80;;;;;;5031495;28;20721;-75
2022/03/05 07:44:02;;;;;;;15.75;10.45;;;10.90;62.70;;;;;;5029836;28;20021;-74
2022/03/05 07:46:28;;;;;;;17.55;10.32;;;11.00;62.80;;;;;;5016644;28;20030;-78
2022/03/05 07:48:53;;;;;;;19.15;9.90;;;10.90;62.60;;;;;;5043677;28;20116;-76
2022/03/05 07:51:19;;;;;;;28.92;11.02;;;10.90;62.80;;;;;;5025049;28;20081;-77
2022/03/05 07:53:45;;;;;;;23.38;11.27;;;10.90;62.40;;;;;;5029460;28;20030;-76
2022/03/05 07:56:10;;;;;;;24.77;11.60;;;10.90;62.50;;;;;;5042491;28;20037;-75
2022/03/05 07:58:36;;;;;;;23.55;10.82;;;10.90;62.40;;;;;;5031736;28;20052;-76
2022/03/05 08:01:02;;;;;;;20.38;11.23;;;10.90;62.50;;;;;;5032345;28;20033;-77
2022/03/05 08:03:27;;;;;;;18.58;11.02;;;10.90;62.50;;;;;;5030617;28;20116;-76
2022/03/05 08:05:54;;;;;;;24.45;10.90;;;10.90;62.80;;;;;;5029666;28;20395;-76
2022/03/05 08:08:19;;;;;;;19.52;11.10;;;10.90;62.90;;;;;;5029660;28;20829;-74
2022/03/05 08:10:45;;;;;;;18.90;11.48;;;10.90;62.80;;;;;;5028629;28;20136;-74
2022/03/05 08:13:11;;;;;;;18.75;11.40;;;11.00;62.90;;;;;;5027960;28;20056;-75
2022/03/05 08:15:37;;;;;;;17.02;10.73;;;11.00;62.60;;;;;;5029452;28;20474;-77
2022/03/05 08:18:03;;;;;;;18.60;11.10;;;11.00;62.60;;;;;;5026221;28;20048;-74
2022/03/05 08:20:31;;;;;;;18.13;11.20;;;11.00;62.50;;;;;;5031474;28;20653;-77
2022/03/05 08:22:57;;;;;;;17.38;10.93;;;11.10;62.50;;;;;;5030221;28;20125;-75
2022/03/05 08:25:24;;;;;;;17.13;11.00;;;11.10;62.40;;;;;;5021701;28;20438;-74
2022/03/05 08:27:49;;;;;;;19.42;10.98;;;11.10;62.30;;;;;;5029440;28;20037;-77
2022/03/05 08:30:16;;;;;;;18.70;11.15;;;11.10;62.40;;;;;;5029108;28;20029;-74
2022/03/05 08:32:42;;;;;;;18.40;11.73;;;11.20;62.50;;;;;;5035724;28;20040;-75
2022/03/05 08:35:09;;;;;;;19.05;11.05;;;11.20;62.50;;;;;;5035127;28;20040;-74
2022/03/05 08:37:36;;;;;;;29.27;12.95;;;11.20;62.50;;;;;;5034751;28;20025;-74
2022/03/05 08:40:03;;;;;;;27.67;12.18;;;11.20;62.50;;;;;;5035464;28;20034;-75
2022/03/05 08:42:28;;;;;;;29.10;11.93;;;11.20;62.20;;;;;;5019419;28;20042;-74
2022/03/05 08:44:54;;;;;;;26.83;12.27;;;11.20;62.20;;;;;;5026334;28;20029;-74
2022/03/05 08:47:20;;;;;;;26.50;11.75;;;11.20;62.30;;;;;;5039468;28;20029;-75
2022/03/05 08:49:45;;;;;;;25.75;11.85;;;11.30;62.40;;;;;;5032084;28;20029;-72
2022/03/05 08:52:11;;;;;;;25.08;12.82;;;11.30;62.30;;;;;;5026050;28;20035;-73
2022/03/05 08:54:36;;;;;;;21.38;11.35;;;11.30;62.40;;;;;;5033557;28;20556;-73
2022/03/05 08:57:02;;;;;;;21.88;11.93;;;11.40;63.10;;;;;;5036244;28;20035;-76
2022/03/05 08:59:28;;;;;;;20.90;12.27;;;11.40;63.80;;;;;;5045807;28;20145;-78
2022/03/05 09:01:54;;;;;;;22.13;11.45;;;11.40;64.30;;;;;;5025807;28;20909;-74
2022/03/05 09:04:19;;;;;;;21.63;12.25;;;11.40;64.80;;;;;;5027613;28;20064;-77
2022/03/05 09:06:45;;;;;;;23.55;12.38;;;11.40;64.60;;;;;;5027808;28;20022;-76
2022/03/05 09:09:10;;;;;;;23.15;11.75;;;11.40;64.70;;;;;;5027047;28;20026;-76
2022/03/05 09:11:38;;;;;;;21.00;12.30;;;11.40;64.80;;;;;;5025509;28;20029;-73
2022/03/05 09:14:06;;;;;;;19.95;11.23;;;11.40;64.90;;;;;;5027916;28;20474;-74
2022/03/05 09:16:35;;;;;;;20.75;12.23;;;11.40;64.90;;;;;;5026962;28;20017;-73
2022/03/05 09:19:00;;;;;;;20.38;11.95;;;11.50;65.00;;;;;;5026768;28;20033;-77
2022/03/05 09:21:26;;;;;;;21.23;12.32;;;11.50;65.00;;;;;;5042304;28;20033;-74
2022/03/05 09:23:51;;;;;;;20.85;11.88;;;11.50;64.80;;;;;;5028845;28;20080;-77
2022/03/05 09:26:18;;;;;;;18.80;11.77;;;11.50;64.90;;;;;;5035818;28;20510;-75
2022/03/05 09:28:44;;;;;;;19.95;12.10;;;11.50;64.90;;;;;;5029998;28;20025;-77
2022/03/05 09:31:10;;;;;;;18.58;11.77;;;11.60;64.80;;;;;;5030123;28;20061;-75
2022/03/05 09:33:35;;;;;;;28.13;12.55;;;11.60;64.80;;;;;;5034144;28;20026;-77
2022/03/05 09:36:01;;;;;;;19.73;12.30;;;11.60;65.30;;;;;;5032078;28;20035;-77
2022/03/05 09:38:26;;;;;;;20.50;12.70;;;11.60;64.80;;;;;;5030206;28;20034;-75
2022/03/05 09:40:53;;;;;;;19.35;12.60;;;11.60;64.70;;;;;;5031020;28;20033;-74
2022/03/05 09:43:19;;;;;;;21.60;11.93;;;11.60;64.70;;;;;;5033861;28;20502;-78
2022/03/05 09:45:46;;;;;;;19.65;11.98;;;11.70;64.80;;;;;;5029970;28;20502;-73
2022/03/05 09:48:14;;;;;;;21.45;13.48;;;11.70;64.80;;;;;;5036669;28;20025;-74
2022/03/05 09:50:39;;;;;;;20.42;12.35;;;11.70;64.80;;;;;;5019804;28;20053;-75
2022/03/05 09:53:05;;;;;;;19.92;12.35;;;11.70;64.80;;;;;;5011909;28;20656;-76
2022/03/05 09:55:31;;;;;;;23.65;13.30;;;11.70;64.40;;;;;;5025244;28;20025;-74
2022/03/05 09:57:57;;;;;;;23.85;13.77;;;11.60;62.50;;;;;;5028005;28;20021;-74
2022/03/05 10:00:23;;;;;;;22.45;13.45;;;11.60;62.50;;;;;;5042124;28;20131;-75
2022/03/05 10:02:48;;;;;;;24.35;12.60;;;11.60;62.50;;;;;;5027512;28;20025;-75
2022/03/05 10:05:15;;;;;;;22.30;13.35;;;11.60;62.70;;;;;;5019885;28;20029;-76
2022/03/05 10:08:12;;;;;;;19.50;13.27;;;11.70;63.10;;;;;;5027360;28;20029;-74
2022/03/05 10:10:44;;;;;;;21.02;13.45;;;11.80;63.40;;;;;;5032642;28;20028;-75
2022/03/05 10:13:22;;;;;;;21.10;13.40;;;11.80;63.60;;;;;;5025051;28;20032;-74
2022/03/05 10:15:49;;;;;;;20.00;12.25;;;11.80;63.70;;;;;;5025950;28;20036;-72
2022/03/05 10:18:15;;;;;;;19.00;13.05;;;11.80;63.80;;;;;;5029703;28;20061;-74
2022/03/05 10:20:50;;;;;;;20.35;12.02;;;11.80;63.80;;;;;;5024326;28;20030;-73
2022/03/05 10:23:17;;;;;;;19.48;12.77;;;11.90;64.00;;;;;;5028283;28;20106;-73
2022/03/05 10:25:48;;;;;;;18.20;11.63;;;11.90;64.10;;;;;;5025454;28;20032;-74
2022/03/05 10:28:17;;;;;;;21.70;13.77;;;11.90;64.10;;;;;;5025703;28;20020;-74
2022/03/05 10:30:53;;;;;;;18.75;12.88;;;11.80;64.10;;;;;;5023821;28;20032;-74
2022/03/05 10:33:34;;;;;;;21.13;13.13;;;11.90;64.20;;;;;;5029868;28;20029;-73
2022/03/05 10:36:02;;;;;;;18.70;12.95;;;11.80;64.20;;;;;;5033761;28;20510;-73
2022/03/05 10:38:58;;;;;;;17.77;12.38;;;11.90;64.30;;;;;;5025605;28;20029;-72
2022/03/05 10:41:38;;;;;;;17.95;12.60;;;11.90;64.40;;;;;;5023134;28;20175;-75
2022/03/05 10:44:13;;;;;;;23.90;12.95;;;11.90;64.40;;;;;;5024006;28;20029;-74
2022/03/05 10:46:44;;;;;;;18.95;13.27;;;12.00;64.40;;;;;;5029806;28;20022;-75
2022/03/05 10:49:21;;;;;;;17.40;12.32;;;12.00;64.40;;;;;;5020620;28;20030;-74
2022/03/05 10:51:48;;;;;;;20.33;13.15;;;12.00;64.40;;;;;;5024519;28;20091;-71
2022/03/05 10:54:37;;;;;;;19.25;12.63;;;12.00;64.40;;;;;;5024761;28;20029;-70
2022/03/05 10:57:21;;;;;;;19.88;12.45;;;12.00;64.50;;;;;;5030636;28;20029;-74
2022/03/05 10:59:50;;;;;;;21.30;13.00;;;12.00;64.50;;;;;;5029812;28;20112;-72
2022/03/05 11:02:21;;;;;;;20.98;12.90;;;12.00;64.60;;;;;;5033786;28;20271;-73
2022/03/05 11:04:47;;;;;;;24.10;12.85;;;12.00;64.70;;;;;;5023414;28;20025;-72
2022/03/05 11:07:17;;;;;;;21.67;13.13;;;12.00;65.00;;;;;;5036501;28;20029;-73
2022/03/05 11:09:44;;;;;;;27.27;12.95;;;12.00;64.90;;;;;;5021120;28;20041;-72
2022/03/05 11:12:15;;;;;;;24.48;12.52;;;11.90;65.10;;;;;;5017275;28;20490;-73
2022/03/05 11:14:45;;;;;;;24.83;13.25;;;12.00;66.00;;;;;;5027667;28;20646;-72
2022/03/05 11:17:11;;;;;;;22.60;13.32;;;12.00;65.90;;;;;;5028960;28;20030;-72
2022/03/05 11:19:37;;;;;;;28.15;14.23;;;12.00;64.70;;;;;;5026218;28;20095;-73
2022/03/05 11:22:02;;;;;;;20.00;12.68;;;12.00;64.20;;;;;;5019557;28;20025;-73
2022/03/05 11:24:30;;;;;;;21.13;13.15;;;12.10;63.80;;;;;;5024785;28;20076;-73
2022/03/05 11:26:56;;;;;;;25.92;13.43;;;12.10;63.20;;;;;;5021716;28;20026;-73
2022/03/05 11:29:27;;;;;;;27.38;13.32;;;12.10;62.90;;;;;;5029865;28;20021;-73
2022/03/05 11:32:09;;;;;;;31.95;14.60;;;12.10;62.80;;;;;;5029105;28;20083;-72
2022/03/05 11:34:44;;;;;;;102.65;18.50;;;12.10;63.00;;;;;;5030654;28;20026;-75
2022/03/05 11:37:22;;;;;;;187.68;24.13;;;12.20;63.70;;;;;;5037817;28;20032;-72
2022/03/05 11:39:48;;;;;;;88.43;17.92;;;12.20;63.10;;;;;;5035905;28;20041;-72
2022/03/05 11:42:27;;;;;;;52.78;15.65;;;12.20;63.10;;;;;;5027250;28;20100;-73
2022/03/05 11:44:52;;;;;;;44.75;14.77;;;12.20;63.40;;;;;;5027068;28;20116;-73
2022/03/05 11:47:18;;;;;;;44.33;14.65;;;12.20;63.20;;;;;;5024080;28;20137;-73
2022/03/05 11:49:56;;;;;;;44.58;16.15;;;12.20;63.00;;;;;;5026920;28;20470;-73
2022/03/05 11:52:37;;;;;;;36.47;14.60;;;12.20;62.90;;;;;;5032443;28;20164;-75
2022/03/05 11:55:16;;;;;;;51.40;14.95;;;12.30;62.90;;;;;;5024993;28;20049;-72
2022/03/05 11:57:43;;;;;;;57.35;15.75;;;12.30;62.70;;;;;;5031586;28;20447;-74
2022/03/05 12:00:10;;;;;;;47.60;16.42;;;12.30;62.90;;;;;;5023483;28;20403;-73
2022/03/05 12:02:44;;;;;;;50.22;15.40;;;12.30;62.90;;;;;;5026231;28;20030;-73
2022/03/05 12:05:09;;;;;;;56.47;16.27;;;12.30;62.10;;;;;;5028009;28;20021;-74
2022/03/05 12:07:40;;;;;;;50.45;15.65;;;12.40;62.50;;;;;;5026634;28;20032;-72
2022/03/05 12:10:14;;;;;;;44.20;15.35;;;12.50;62.20;;;;;;5026293;28;20290;-73
2022/03/05 12:13:00;;;;;;;37.55;15.23;;;12.50;62.20;;;;;;5026710;28;20490;-73
2022/03/05 12:15:41;;;;;;;106.72;20.35;;;12.50;62.10;;;;;;5027698;28;20025;-74
2022/03/05 12:18:11;;;;;;;68.70;17.63;;;12.40;60.00;;;;;;5026379;28;20235;-73
2022/03/05 12:20:38;;;;;;;64.88;17.15;;;12.40;58.90;;;;;;5027247;28;20546;-73
2022/03/05 12:23:18;;;;;;;46.78;16.33;;;12.30;60.00;;;;;;5027366;28;20029;-72
2022/03/05 12:25:46;;;;;;;42.17;15.82;;;12.40;60.70;;;;;;5026007;28;20029;-73
2022/03/05 12:28:14;;;;;;;32.70;15.65;;;12.30;61.00;;;;;;5026148;28;20116;-74
2022/03/05 12:30:40;;;;;;;32.70;14.98;;;12.30;61.10;;;;;;5026026;28;20040;-73
2022/03/05 12:33:07;;;;;;;33.70;14.95;;;12.30;61.40;;;;;;5027139;28;20029;-73
2022/03/05 12:35:34;;;;;;;36.28;14.98;;;12.30;61.20;;;;;;5026410;28;20026;-75